createdAt,value
2018-02-03T00:00:31.648Z,20.52
2018-02-03T00:02:59.311Z,26.48
2018-02-03T00:05:27.555Z,19.37
2018-02-03T00:07:55.816Z,18.60
2018-02-03T00:10:23.653Z,20.67
2018-02-03T00:12:51.091Z,11.80
2018-02-03T00:15:18.730Z,21.70
2018-02-03T00:17:46.540Z,22.35
2018-02-03T00:20:14.204Z,23.55
2018-02-03T00:22:42.506Z,20.88
2018-02-03T00:25:10.248Z,16.87
2018-02-03T00:27:37.708Z,21.23
2018-02-03T00:30:06.880Z,35.15
2018-02-03T00:32:35.065Z,35.35
2018-02-03T00:35:03.220Z,35.63
2018-02-03T00:37:30.662Z,26.37
2018-02-03T00:39:58.123Z,18.35
2018-02-03T00:42:25.763Z,28.20
2018-02-03T00:44:53.560Z,26.15
2018-02-03T00:47:21.311Z,19.75
2018-02-03T00:49:49.549Z,30.05
2018-02-03T00:52:16.984Z,21.55
2018-02-03T00:54:45.142Z,22.80
2018-02-03T00:57:12.890Z,20.92
2018-02-03T00:59:40.767Z,21.92
2018-02-03T01:02:09.058Z,21.27
2018-02-03T01:04:36.511Z,20.40
2018-02-03T01:07:04.761Z,18.52
2018-02-03T01:09:32.265Z,17.95
2018-02-03T01:12:00.108Z,16.50
2018-02-03T01:14:27.889Z,15.70
2018-02-03T01:16:55.338Z,14.68
2018-02-03T01:19:26.194Z,13.48
2018-02-03T01:21:54.052Z,16.10
2018-02-03T01:24:21.843Z,15.70
2018-02-03T01:26:49.282Z,12.75
2018-02-03T01:29:18.589Z,12.35
2018-02-03T01:31:46.067Z,13.95
2018-02-03T01:34:14.408Z,14.13
2018-02-03T01:36:41.830Z,11.30
2018-02-03T01:39:09.508Z,13.20
2018-02-03T01:41:36.966Z,12.93
2018-02-03T01:44:04.654Z,13.30
2018-02-03T01:46:32.459Z,11.00
2018-02-03T01:49:00.253Z,11.45
2018-02-03T01:51:28.363Z,12.00
2018-02-03T01:53:56.567Z,11.88
2018-02-03T01:56:24.397Z,11.35
2018-02-03T01:58:53.470Z,14.95
2018-02-03T02:01:21.572Z,14.07
2018-02-03T02:03:49.206Z,13.05
2018-02-03T02:06:17.010Z,18.12
2018-02-03T02:08:45.236Z,16.37
2018-02-03T02:11:12.907Z,17.73
2018-02-03T02:13:40.366Z,20.90
2018-02-03T02:16:08.023Z,20.55
2018-02-03T02:18:35.467Z,17.52
2018-02-03T02:21:02.898Z,19.35
2018-02-03T02:23:30.360Z,19.70
2018-02-03T02:25:58.002Z,17.98
2018-02-03T02:28:25.646Z,29.83
2018-02-03T02:30:53.315Z,15.77
2018-02-03T02:33:20.756Z,23.00
2018-02-03T02:35:48.548Z,17.65
2018-02-03T02:38:16.207Z,31.67
2018-02-03T02:40:43.644Z,35.60
2018-02-03T02:43:11.279Z,26.50
2018-02-03T02:45:38.758Z,16.62
2018-02-03T02:48:06.196Z,20.05
2018-02-03T02:50:33.842Z,16.40
2018-02-03T02:53:01.292Z,22.05
2018-02-03T02:55:29.142Z,14.02
2018-02-03T02:57:56.583Z,15.85
2018-02-03T03:00:24.041Z,21.48
2018-02-03T03:02:51.487Z,26.02
2018-02-03T03:05:19.131Z,17.12
2018-02-03T03:07:46.594Z,17.30
2018-02-03T03:10:14.042Z,23.73
2018-02-03T03:12:41.696Z,17.23
2018-02-03T03:15:09.364Z,21.83
2018-02-03T03:17:37.614Z,20.00
2018-02-03T03:20:05.847Z,19.23
2018-02-03T03:22:33.311Z,20.92
2018-02-03T03:25:00.768Z,17.25
2018-02-03T03:27:28.581Z,22.48
2018-02-03T03:29:56.243Z,21.37
2018-02-03T03:32:24.390Z,17.17
2018-02-03T03:34:51.842Z,21.50
2018-02-03T03:37:19.295Z,21.70
2018-02-03T03:39:47.078Z,16.65
2018-02-03T03:42:14.542Z,16.05
2018-02-03T03:44:41.978Z,19.02
2018-02-03T03:47:09.463Z,20.83
2018-02-03T03:49:37.123Z,17.85
2018-02-03T03:52:04.779Z,17.95
2018-02-03T03:54:32.423Z,16.92
2018-02-03T03:57:00.232Z,37.88
2018-02-03T03:59:27.882Z,22.08
2018-02-03T04:01:55.543Z,26.50
2018-02-03T04:04:23.007Z,21.58
2018-02-03T04:06:50.666Z,26.70
2018-02-03T04:09:18.114Z,22.35
2018-02-03T04:11:45.570Z,22.37
2018-02-03T04:14:13.464Z,19.40
2018-02-03T04:16:41.103Z,19.27
2018-02-03T04:19:08.547Z,22.23
2018-02-03T04:21:35.983Z,17.45
2018-02-03T04:24:03.419Z,17.85
2018-02-03T04:26:30.891Z,19.00
2018-02-03T04:28:58.706Z,17.27
2018-02-03T04:31:26.159Z,12.48
2018-02-03T04:33:53.610Z,19.15
2018-02-03T04:36:21.072Z,16.98
2018-02-03T04:38:48.707Z,19.20
2018-02-03T04:41:16.147Z,20.12
2018-02-03T04:43:43.591Z,19.17
2018-02-03T04:46:11.037Z,15.57
2018-02-03T04:48:38.830Z,17.52
2018-02-03T04:51:06.470Z,19.48
2018-02-03T04:53:33.931Z,22.83
2018-02-03T04:56:01.730Z,21.15
2018-02-03T04:58:29.184Z,19.87
2018-02-03T05:00:56.822Z,18.37
2018-02-03T05:03:24.486Z,18.58
2018-02-03T05:05:52.134Z,19.62
2018-02-03T05:08:19.587Z,20.48
2018-02-03T05:10:47.247Z,21.12
2018-02-03T05:13:14.707Z,18.50
2018-02-03T05:15:42.566Z,21.02
2018-02-03T05:18:10.430Z,21.90
2018-02-03T05:20:38.326Z,24.73
2018-02-03T05:23:05.754Z,19.85
2018-02-03T05:25:33.219Z,22.85
2018-02-03T05:28:00.650Z,24.48
2018-02-03T05:30:28.290Z,20.67
2018-02-03T05:32:55.962Z,22.20
2018-02-03T05:35:23.780Z,28.17
2018-02-03T05:37:51.215Z,24.02
2018-02-03T05:40:18.667Z,22.73
2018-02-03T05:42:46.299Z,21.35
2018-02-03T05:45:15.474Z,24.10
2018-02-03T05:47:43.137Z,21.48
2018-02-03T05:50:10.575Z,26.10
2018-02-03T05:52:38.018Z,23.62
2018-02-03T05:55:05.479Z,19.40
2018-02-03T05:57:33.110Z,24.27
2018-02-03T06:00:00.551Z,24.35
2018-02-03T06:02:27.986Z,25.90
2018-02-03T06:04:55.830Z,24.35
2018-02-03T06:07:23.268Z,24.67
2018-02-03T06:09:50.699Z,21.98
2018-02-03T06:12:18.148Z,23.55
2018-02-03T06:14:45.794Z,22.83
2018-02-03T06:17:13.243Z,23.23
2018-02-03T06:19:40.686Z,22.65
2018-02-03T06:22:08.331Z,23.05
2018-02-03T06:24:35.788Z,30.55
2018-02-03T06:27:03.245Z,27.15
2018-02-03T06:29:30.675Z,22.75
2018-02-03T06:31:58.443Z,24.15
2018-02-03T06:34:26.223Z,26.87
2018-02-03T06:36:53.896Z,27.80
2018-02-03T06:39:21.354Z,22.87
2018-02-03T06:41:49.007Z,22.55
2018-02-03T06:44:16.454Z,23.92
2018-02-03T06:46:44.239Z,22.27
2018-02-03T06:49:11.684Z,24.30
2018-02-03T06:51:39.491Z,24.98
2018-02-03T06:54:06.961Z,27.37
2018-02-03T06:56:34.678Z,29.75
2018-02-03T06:59:02.119Z,27.40
2018-02-03T07:01:29.758Z,21.73
2018-02-03T07:03:57.539Z,28.77
2018-02-03T07:06:25.019Z,24.45
2018-02-03T07:08:52.466Z,24.90
2018-02-03T07:11:20.245Z,22.10
2018-02-03T07:13:48.018Z,20.10
2018-02-03T07:16:16.241Z,22.05
2018-02-03T07:18:44.031Z,19.23
2018-02-03T07:21:11.680Z,19.85
2018-02-03T07:23:39.527Z,21.33
2018-02-03T07:26:06.991Z,23.77
2018-02-03T07:28:35.380Z,28.50
2018-02-03T07:31:04.382Z,22.70
2018-02-03T07:33:31.836Z,25.58
2018-02-03T07:36:02.656Z,28.02
2018-02-03T07:38:30.937Z,28.58
2018-02-03T07:40:58.591Z,25.27
2018-02-03T07:43:26.023Z,18.95
2018-02-03T07:45:53.487Z,23.55
2018-02-03T07:48:21.811Z,26.48
2018-02-03T07:50:49.578Z,25.33
2018-02-03T07:53:17.239Z,21.33
2018-02-03T07:55:44.923Z,17.05
2018-02-03T07:58:12.390Z,18.15
2018-02-03T08:00:39.834Z,17.52
2018-02-03T08:03:07.290Z,18.90
2018-02-03T08:05:34.927Z,16.30
2018-02-03T08:08:02.387Z,17.70
2018-02-03T08:10:30.270Z,16.42
2018-02-03T08:12:58.444Z,22.90
2018-02-03T08:15:25.913Z,20.50
2018-02-03T08:17:53.630Z,18.73
2018-02-03T08:20:21.078Z,20.10
2018-02-03T08:22:48.818Z,15.30
2018-02-03T08:25:16.250Z,19.45
2018-02-03T08:27:45.327Z,18.52
2018-02-03T08:30:12.979Z,16.70
2018-02-03T08:32:41.271Z,19.05
2018-02-03T08:35:08.715Z,17.58
2018-02-03T08:37:37.892Z,22.25
2018-02-03T08:40:05.311Z,16.40
2018-02-03T08:42:32.775Z,17.27
2018-02-03T08:45:00.438Z,21.67
2018-02-03T08:47:27.867Z,19.27
2018-02-03T08:49:55.520Z,22.80
2018-02-03T08:52:22.996Z,15.38
2018-02-03T08:54:50.821Z,15.55
2018-02-03T08:57:18.259Z,15.85
2018-02-03T08:59:45.733Z,17.70
2018-02-03T09:02:14.918Z,17.55
2018-02-03T09:04:43.202Z,16.85
2018-02-03T09:07:11.494Z,19.27
2018-02-03T09:09:39.704Z,15.15
2018-02-03T09:12:07.931Z,18.70
2018-02-03T09:14:35.586Z,20.37
2018-02-03T09:17:03.235Z,18.30
2018-02-03T09:19:32.243Z,17.23
2018-02-03T09:21:59.907Z,18.60
2018-02-03T09:24:27.350Z,16.92
2018-02-03T09:26:55.491Z,19.37
2018-02-03T09:29:23.743Z,15.95
2018-02-03T09:31:52.084Z,19.02
2018-02-03T09:36:53.437Z,15.52
2018-02-03T09:39:22.503Z,17.85
2018-02-03T09:41:50.411Z,19.23
2018-02-03T09:44:21.206Z,21.77
2018-02-03T09:46:49.548Z,21.40
2018-02-03T09:49:17.675Z,18.62
2018-02-03T09:51:46.008Z,20.08
2018-02-03T09:54:13.825Z,17.52
2018-02-03T09:56:42.929Z,24.48
2018-02-03T10:01:41.982Z,18.33
2018-02-03T10:04:10.133Z,28.12
2018-02-03T10:06:38.404Z,24.23
2018-02-03T10:09:09.180Z,20.98
2018-02-03T10:11:38.331Z,20.17
2018-02-03T10:16:37.447Z,17.33
2018-02-03T10:19:06.771Z,23.05
2018-02-03T10:21:35.922Z,19.12
2018-02-03T10:24:04.226Z,20.58
2018-02-03T10:31:39.964Z,24.25
2018-02-03T10:36:39.857Z,15.18
2018-02-03T10:39:08.217Z,19.42
2018-02-03T10:41:35.658Z,16.30
2018-02-03T10:44:06.630Z,16.45
2018-02-03T10:46:34.855Z,25.27
2018-02-03T10:51:35.746Z,17.20
2018-02-03T11:09:17.303Z,17.05
2018-02-03T11:16:52.219Z,14.27
2018-02-03T11:21:52.091Z,16.15
2018-02-03T11:29:25.688Z,16.30
2018-02-03T11:36:58.256Z,13.48
2018-02-03T11:44:30.166Z,14.18
2018-02-03T11:47:01.235Z,12.23
2018-02-03T11:49:29.205Z,10.18
2018-02-03T11:54:28.842Z,17.27
2018-02-03T12:01:59.919Z,11.43
2018-02-03T12:04:27.587Z,9.35
2018-02-03T12:09:28.090Z,8.50
2018-02-03T12:19:30.471Z,13.57
2018-02-03T12:21:58.078Z,14.13
2018-02-03T12:24:25.812Z,16.37
2018-02-03T12:26:53.607Z,19.12
2018-02-03T12:31:52.906Z,22.10
2018-02-03T12:34:23.768Z,21.70
2018-02-03T12:39:27.355Z,20.55
2018-02-03T12:41:55.139Z,25.58
2018-02-03T12:51:59.330Z,24.08
2018-02-03T12:54:27.499Z,20.75
2018-02-03T12:56:54.948Z,17.60
2018-02-03T12:59:23.279Z,20.98
2018-02-03T13:06:57.542Z,22.10
2018-02-03T13:09:26.795Z,26.23
2018-02-03T13:11:54.598Z,19.17
2018-02-03T13:14:22.055Z,20.40
2018-02-03T13:16:49.739Z,20.15
2018-02-03T13:21:49.939Z,23.40
2018-02-03T13:24:17.401Z,25.50
2018-02-03T13:26:45.642Z,19.67
2018-02-03T13:29:13.312Z,31.58
2018-02-03T13:31:41.647Z,19.40
2018-02-03T13:36:41.643Z,16.90
2018-02-03T13:39:09.299Z,23.67
2018-02-03T13:41:38.404Z,22.80
2018-02-03T13:44:06.608Z,20.92
2018-02-03T13:46:34.287Z,20.00
2018-02-03T13:51:33.807Z,36.22
2018-02-03T13:56:34.555Z,27.02
2018-02-03T14:16:46.919Z,19.35
2018-02-03T14:19:15.178Z,19.40
2018-02-03T14:21:44.276Z,15.57
2018-02-03T14:24:22.387Z,19.30
2018-02-03T14:26:50.656Z,24.48
2018-02-03T14:29:18.647Z,26.45
2018-02-03T14:36:50.562Z,21.20
2018-02-03T15:04:47.235Z,15.88
2018-02-03T15:12:20.262Z,20.25
2018-02-03T15:14:48.006Z,19.73
2018-02-03T15:19:47.468Z,22.67
2018-02-03T15:24:47.921Z,23.87
2018-02-03T15:27:15.724Z,24.75
2018-02-03T15:29:43.157Z,26.00
2018-02-03T15:32:10.992Z,26.65
2018-02-03T15:34:38.692Z,22.02
2018-02-03T15:37:06.344Z,23.30
2018-02-03T15:39:34.641Z,21.23
2018-02-03T15:42:02.066Z,21.70
2018-02-03T15:44:29.499Z,26.70
2018-02-03T15:46:56.959Z,22.27
2018-02-03T15:49:24.419Z,20.20
2018-02-03T15:51:51.851Z,18.42
2018-02-03T15:54:19.303Z,23.50
2018-02-03T15:56:46.726Z,18.40
2018-02-03T15:59:14.158Z,18.58
2018-02-03T16:01:41.611Z,27.27
2018-02-03T16:04:09.063Z,23.52
2018-02-03T16:06:36.498Z,25.65
2018-02-03T16:09:03.955Z,24.45
2018-02-03T16:11:31.410Z,32.28
2018-02-03T16:13:58.849Z,26.08
2018-02-03T16:16:26.318Z,26.02
2018-02-03T16:18:53.750Z,26.75
2018-02-03T16:21:21.198Z,27.08
2018-02-03T16:23:48.662Z,23.87
2018-02-03T16:26:16.098Z,20.45
2018-02-03T16:28:43.546Z,17.83
2018-02-03T16:31:10.986Z,21.37
2018-02-03T16:33:38.426Z,22.20
2018-02-03T16:36:06.110Z,22.92
2018-02-03T16:38:33.894Z,19.17
2018-02-03T16:41:01.338Z,21.00
2018-02-03T16:43:28.794Z,24.83
2018-02-03T16:45:56.255Z,18.92
2018-02-03T16:48:23.707Z,21.08
2018-02-03T16:50:51.143Z,21.12
2018-02-03T16:53:20.333Z,18.30
2018-02-03T16:55:48.200Z,22.33
2018-02-03T16:58:16.056Z,19.30
2018-02-03T17:00:43.506Z,25.25
2018-02-03T17:03:11.674Z,20.48
2018-02-03T17:05:39.111Z,21.98
2018-02-03T17:08:06.911Z,26.30
2018-02-03T17:13:06.645Z,29.92
2018-02-03T17:20:38.105Z,29.08
2018-02-03T17:23:06.412Z,30.98
2018-02-03T17:28:06.628Z,27.25
2018-02-03T17:35:37.437Z,28.58
2018-02-03T17:45:53.883Z,26.73
2018-02-03T17:48:25.602Z,41.28
2018-02-03T17:56:03.461Z,32.35
2018-02-03T17:58:31.868Z,28.87
2018-02-03T18:01:00.056Z,31.37
2018-02-03T18:08:34.144Z,23.95
2018-02-03T18:11:05.556Z,21.23
2018-02-03T18:13:33.735Z,27.27
2018-02-03T18:16:04.559Z,25.70
2018-02-03T18:18:33.662Z,26.77
2018-02-03T18:23:33.596Z,22.83
2018-02-03T18:28:34.866Z,22.35
2018-02-03T18:33:37.350Z,28.10
2018-02-03T18:36:06.564Z,29.05
2018-02-03T18:38:34.786Z,36.45
2018-02-03T18:41:05.665Z,24.85
2018-02-03T18:43:33.448Z,26.77
2018-02-03T18:46:04.381Z,26.37
2018-02-03T18:48:35.279Z,25.85
2018-02-03T18:51:03.555Z,25.33
2018-02-03T18:53:32.611Z,25.62
2018-02-03T18:56:00.707Z,30.17
2018-02-03T18:58:29.050Z,25.05
2018-02-03T19:00:59.984Z,21.87
2018-02-03T19:03:30.821Z,26.05
2018-02-03T19:05:59.919Z,21.62
2018-02-03T19:11:00.383Z,25.15
2018-02-03T19:16:00.181Z,24.25
2018-02-03T19:18:29.174Z,24.33
2018-02-03T19:23:28.439Z,25.05
2018-02-03T19:25:56.095Z,28.70
2018-02-03T19:28:23.753Z,23.40
2018-02-03T19:30:51.255Z,28.12
2018-02-03T19:33:19.586Z,23.08
2018-02-03T19:35:50.419Z,30.35
2018-02-03T19:38:19.587Z,25.37
2018-02-03T19:40:48.692Z,26.05
2018-02-03T19:43:16.971Z,29.67
2018-02-03T19:45:45.212Z,32.35
2018-02-03T19:48:13.533Z,25.20
2018-02-03T19:50:42.731Z,22.77
2018-02-03T19:53:10.513Z,21.40
2018-02-03T19:55:39.599Z,28.15
2018-02-03T19:58:08.675Z,26.05
2018-02-03T20:03:08.613Z,22.67
2018-02-03T20:05:36.411Z,23.35
2018-02-03T20:08:05.591Z,20.80
2018-02-03T20:13:04.904Z,23.40
2018-02-03T20:15:32.796Z,19.85
2018-02-03T20:18:01.842Z,21.42
2018-02-03T20:20:32.712Z,26.37
2018-02-03T20:23:00.995Z,23.02
2018-02-03T20:25:28.821Z,22.37
2018-02-03T20:27:57.099Z,23.65
2018-02-03T20:38:02.247Z,27.73
2018-02-03T20:45:34.695Z,28.45
2018-02-03T20:48:02.463Z,27.05
2018-02-03T20:50:31.533Z,30.23
2018-02-03T20:53:00.562Z,20.75
2018-02-03T20:55:28.334Z,23.87
2018-02-03T20:57:55.966Z,25.20
2018-02-03T21:00:24.220Z,24.23
2018-02-03T21:02:52.438Z,24.87
2018-02-03T21:05:20.560Z,27.40
2018-02-03T21:07:47.991Z,24.17
2018-02-03T21:10:18.910Z,24.30
2018-02-03T21:12:47.094Z,32.25
2018-02-03T21:15:16.137Z,28.73
2018-02-03T21:20:18.852Z,29.90
2018-02-03T21:22:46.347Z,29.67
2018-02-03T21:25:14.547Z,27.90
2018-02-03T21:27:43.683Z,24.77
2018-02-03T21:30:12.952Z,26.70
2018-02-03T21:32:41.186Z,22.62
2018-02-03T21:35:10.328Z,33.40
2018-02-03T21:37:38.606Z,23.58
2018-02-03T21:40:06.827Z,24.67
2018-02-03T21:42:35.871Z,29.48
2018-02-03T21:45:04.071Z,28.52
2018-02-03T21:47:31.758Z,23.80
2018-02-03T21:55:03.271Z,22.10
2018-02-03T21:57:30.800Z,24.60
2018-02-03T21:59:58.599Z,22.30
2018-02-03T22:04:57.920Z,27.13
2018-02-03T22:07:25.744Z,26.00
2018-02-03T22:09:54.855Z,23.58
2018-02-03T22:12:23.148Z,21.40
2018-02-03T22:14:51.395Z,24.45
2018-02-03T22:17:20.592Z,27.58
2018-02-03T22:19:48.230Z,23.20
2018-02-03T22:22:16.017Z,23.08
2018-02-03T22:24:45.144Z,26.25
2018-02-03T22:27:13.378Z,27.70
2018-02-03T22:29:41.243Z,23.48
2018-02-03T22:32:09.030Z,24.10
2018-02-03T22:34:36.815Z,23.98
2018-02-03T22:37:03.570Z,25.80
2018-02-03T22:39:31.238Z,28.98
2018-02-03T22:41:58.678Z,24.37
2018-02-03T22:44:26.860Z,37.22
2018-02-03T22:46:54.317Z,24.15
2018-02-03T22:49:22.552Z,23.70
2018-02-03T22:51:50.748Z,27.52
2018-02-03T22:54:18.402Z,26.98
2018-02-03T22:56:45.842Z,29.45
2018-02-03T22:59:13.298Z,31.20
2018-02-03T23:04:13.042Z,30.95
2018-02-03T23:06:41.215Z,28.98
2018-02-03T23:09:09.172Z,33.22
2018-02-03T23:11:37.046Z,29.15
2018-02-03T23:14:04.511Z,35.72
2018-02-03T23:16:32.178Z,29.35
2018-02-03T23:18:59.822Z,31.95
2018-02-03T23:21:27.519Z,33.88
2018-02-03T23:23:55.626Z,32.22
2018-02-03T23:26:24.630Z,36.42
2018-02-03T23:31:25.275Z,30.05
2018-02-03T23:33:53.569Z,33.58
2018-02-03T23:36:21.875Z,34.55
2018-02-03T23:38:49.687Z,32.47
2018-02-03T23:41:17.455Z,34.90
2018-02-03T23:43:44.903Z,38.17
2018-02-03T23:46:12.610Z,31.15
2018-02-03T23:48:40.249Z,31.35
2018-02-03T23:51:07.719Z,30.92
2018-02-03T23:53:35.186Z,33.17
2018-02-03T23:56:03.399Z,34.20
2018-02-03T23:58:31.064Z,31.42
